createdAt,value
2018-07-13T00:02:13.692Z,9.57
2018-07-13T00:04:42.662Z,9.70
2018-07-13T00:07:11.493Z,10.67
2018-07-13T00:09:52.414Z,12.17
2018-07-13T00:12:21.145Z,11.17
2018-07-13T00:15:00.961Z,13.10
2018-07-13T00:17:29.893Z,14.67
2018-07-13T00:19:59.177Z,15.03
2018-07-13T00:22:28.205Z,13.47
2018-07-13T00:24:58.240Z,13.13
2018-07-13T00:27:26.987Z,13.97
2018-07-13T00:29:55.925Z,15.40
2018-07-13T00:32:24.790Z,14.70
2018-07-13T00:34:53.644Z,16.37
2018-07-13T00:37:23.769Z,15.40
2018-07-13T00:39:52.668Z,14.83
2018-07-13T00:42:21.541Z,13.67
2018-07-13T00:44:50.493Z,14.87
2018-07-13T00:47:19.549Z,12.50
2018-07-13T00:49:48.369Z,13.13
2018-07-13T00:52:18.446Z,12.60
2018-07-13T00:54:47.313Z,13.80
2018-07-13T00:57:16.242Z,15.70
2018-07-13T00:59:45.219Z,15.47
2018-07-13T01:02:13.720Z,14.23
2018-07-13T01:04:42.419Z,13.57
2018-07-13T01:07:11.127Z,14.47
2018-07-13T01:09:40.060Z,14.70
2018-07-13T01:12:09.323Z,15.00
2018-07-13T01:14:37.988Z,13.07
2018-07-13T01:17:06.682Z,17.07
2018-07-13T01:19:35.292Z,14.63
2018-07-13T01:22:03.996Z,15.07
2018-07-13T01:24:32.725Z,16.40
2018-07-13T01:27:01.297Z,15.03
2018-07-13T01:29:30.072Z,20.13
2018-07-13T01:31:58.806Z,17.30
2018-07-13T01:34:27.494Z,17.70
2018-07-13T01:36:56.438Z,17.87
2018-07-13T01:39:25.152Z,17.50
2018-07-13T01:41:53.807Z,16.80
2018-07-13T01:44:22.403Z,19.50
2018-07-13T01:46:51.195Z,17.83
2018-07-13T01:49:19.795Z,16.60
2018-07-13T01:51:48.358Z,16.97
2018-07-13T01:54:17.133Z,18.53
2018-07-13T01:56:45.786Z,19.80
2018-07-13T01:59:15.347Z,20.20
2018-07-13T02:01:44.035Z,18.20
2018-07-13T02:04:13.688Z,17.20
2018-07-13T02:06:42.410Z,19.50
2018-07-13T02:09:10.982Z,20.67
2018-07-13T02:11:39.548Z,18.23
2018-07-13T02:14:09.196Z,16.50
2018-07-13T02:16:37.965Z,15.33
2018-07-13T02:19:07.031Z,15.27
2018-07-13T02:21:35.676Z,17.40
2018-07-13T02:24:04.422Z,16.00
2018-07-13T02:26:33.051Z,16.13
2018-07-13T02:29:01.751Z,15.03
2018-07-13T02:31:30.631Z,16.10
2018-07-13T02:34:00.185Z,16.50
2018-07-13T02:36:28.936Z,17.70
2018-07-13T02:38:57.604Z,17.13
2018-07-13T02:41:26.173Z,17.90
2018-07-13T02:43:54.743Z,20.33
2018-07-13T02:46:23.334Z,17.67
2018-07-13T02:48:51.971Z,22.70
2018-07-13T02:51:20.533Z,21.33
2018-07-13T02:53:49.169Z,20.30
2018-07-13T02:56:17.753Z,20.30
2018-07-13T02:58:46.359Z,21.90
2018-07-13T03:01:15.147Z,19.83
2018-07-13T03:03:43.845Z,20.10
2018-07-13T03:06:12.535Z,18.60
2018-07-13T03:08:42.245Z,19.93
2018-07-13T03:11:10.976Z,19.10
2018-07-13T03:13:39.642Z,19.97
2018-07-13T03:16:08.385Z,21.93
2018-07-13T03:18:36.962Z,19.57
2018-07-13T03:21:05.698Z,21.37
2018-07-13T03:23:34.347Z,21.40
2018-07-13T03:26:03.018Z,21.60
2018-07-13T03:28:31.804Z,22.77
2018-07-13T03:31:00.695Z,23.17
2018-07-13T03:33:29.484Z,26.23
2018-07-13T03:35:58.267Z,24.27
2018-07-13T03:38:26.984Z,24.73
2018-07-13T03:40:55.656Z,26.30
2018-07-13T03:43:24.359Z,28.00
2018-07-13T03:45:53.090Z,27.70
2018-07-13T03:48:21.697Z,26.37
2018-07-13T03:50:50.346Z,23.20
2018-07-13T03:53:19.062Z,25.87
2018-07-13T03:55:47.738Z,24.23
2018-07-13T03:58:16.332Z,28.27
2018-07-13T04:00:45.159Z,21.80
2018-07-13T04:03:13.866Z,22.40
2018-07-13T04:05:42.792Z,24.07
2018-07-13T04:08:11.550Z,23.73
2018-07-13T04:10:40.695Z,23.83
2018-07-13T04:13:09.304Z,22.83
2018-07-13T04:15:38.091Z,24.40
2018-07-13T04:18:11.013Z,21.53
2018-07-13T04:20:39.754Z,22.37
2018-07-13T04:23:08.623Z,25.57
2018-07-13T04:25:37.473Z,21.47
2018-07-13T04:28:06.156Z,23.40
2018-07-13T04:30:34.931Z,26.67
2018-07-13T04:33:03.479Z,25.37
2018-07-13T04:35:32.143Z,22.40
2018-07-13T04:38:00.994Z,23.57
2018-07-13T04:40:36.689Z,26.87
2018-07-13T04:43:05.446Z,22.23
2018-07-13T04:45:34.158Z,23.77
2018-07-13T04:48:03.046Z,26.40
2018-07-13T04:50:31.642Z,23.67
2018-07-13T04:53:01.099Z,22.90
2018-07-13T04:55:29.859Z,21.07
2018-07-13T04:57:58.663Z,23.20
2018-07-13T05:00:27.426Z,21.00
2018-07-13T05:02:56.201Z,18.50
2018-07-13T05:05:24.859Z,20.93
2018-07-13T05:07:53.676Z,22.30
2018-07-13T05:10:23.023Z,19.70
2018-07-13T05:12:51.806Z,18.50
2018-07-13T05:15:20.531Z,19.90
2018-07-13T05:17:49.245Z,19.23
2018-07-13T05:20:18.952Z,19.40
2018-07-13T05:22:47.759Z,19.40
2018-07-13T05:25:16.462Z,19.33
2018-07-13T05:27:45.224Z,20.90
2018-07-13T05:30:13.955Z,21.40
2018-07-13T05:32:42.733Z,23.50
2018-07-13T05:35:11.315Z,24.00
2018-07-13T05:37:40.215Z,21.40
2018-07-13T05:40:08.878Z,21.33
2018-07-13T05:42:37.695Z,21.50
2018-07-13T05:45:06.711Z,21.37
2018-07-13T05:47:35.491Z,21.73
2018-07-13T05:50:04.168Z,18.07
2018-07-13T05:52:32.909Z,21.27
2018-07-13T05:55:01.623Z,18.20
2018-07-13T05:57:30.423Z,21.50
2018-07-13T05:59:59.193Z,19.17
2018-07-13T06:02:27.962Z,18.23
2018-07-13T06:04:56.784Z,17.80
2018-07-13T06:07:25.665Z,15.53
2018-07-13T06:09:55.115Z,15.97
2018-07-13T06:12:24.339Z,15.57
2018-07-13T06:14:53.142Z,14.60
2018-07-13T06:17:22.411Z,15.50
2018-07-13T06:19:51.109Z,14.70
2018-07-13T06:22:19.719Z,15.30
2018-07-13T06:24:48.435Z,13.90
2018-07-13T06:27:17.092Z,12.90
2018-07-13T06:29:45.734Z,12.50
2018-07-13T06:32:14.328Z,12.63
2018-07-13T06:34:43.000Z,13.63
2018-07-13T06:37:11.688Z,14.30
2018-07-13T06:39:40.322Z,13.93
2018-07-13T06:42:09.092Z,14.00
2018-07-13T06:44:37.735Z,13.80
2018-07-13T06:47:06.501Z,14.33
2018-07-13T06:49:35.162Z,13.30
2018-07-13T06:52:03.866Z,13.00
2018-07-13T06:54:32.521Z,13.27
2018-07-13T06:57:01.184Z,12.50
2018-07-13T06:59:29.840Z,13.97
2018-07-13T07:01:58.603Z,13.90
2018-07-13T07:04:29.733Z,13.37
2018-07-13T07:06:59.823Z,12.10
2018-07-13T07:09:28.960Z,13.10
2018-07-13T07:13:08.840Z,12.87
2018-07-13T07:15:37.857Z,10.47
2018-07-13T07:18:06.867Z,11.20
2018-07-13T07:21:00.969Z,10.00
2018-07-13T07:23:39.183Z,9.63
2018-07-13T07:26:07.935Z,9.20
2018-07-13T07:28:36.563Z,9.70
2018-07-13T07:31:05.261Z,8.60
2018-07-13T07:33:33.997Z,8.63
2018-07-13T07:36:02.692Z,7.40
2018-07-13T07:38:31.382Z,8.37
2018-07-13T07:40:59.952Z,8.77
2018-07-13T07:43:28.608Z,7.33
2018-07-13T07:45:57.273Z,10.27
2018-07-13T07:48:25.951Z,9.07
2018-07-13T07:50:54.588Z,8.47
2018-07-13T07:53:23.241Z,9.20
2018-07-13T07:55:51.899Z,9.20
2018-07-13T07:58:20.562Z,9.30
2018-07-13T08:00:54.033Z,9.63
2018-07-13T08:03:22.697Z,8.40
2018-07-13T08:05:51.317Z,7.70
2018-07-13T08:08:20.019Z,7.93
2018-07-13T08:10:48.847Z,8.27
2018-07-13T08:13:17.558Z,11.43
2018-07-13T08:15:46.548Z,7.27
2018-07-13T08:18:15.176Z,7.53
2018-07-13T08:20:47.177Z,9.73
2018-07-13T08:23:15.897Z,7.30
2018-07-13T08:25:46.698Z,9.40
2018-07-13T08:28:16.305Z,6.93
2018-07-13T08:30:53.051Z,8.97
2018-07-13T08:33:21.599Z,8.90
2018-07-13T08:35:50.372Z,7.23
2018-07-13T08:38:19.027Z,8.67
2018-07-13T08:40:47.925Z,8.80
2018-07-13T08:43:16.725Z,6.47
2018-07-13T08:45:45.397Z,8.50
2018-07-13T08:48:14.141Z,6.83
2018-07-13T08:50:42.898Z,8.10
2018-07-13T08:53:11.671Z,7.30
2018-07-13T08:55:40.355Z,8.40
2018-07-13T08:58:09.124Z,8.30
2018-07-13T09:00:37.875Z,8.83
2018-07-13T09:03:08.659Z,8.30
2018-07-13T09:05:37.342Z,6.53
2018-07-13T09:08:06.039Z,8.30
2018-07-13T09:10:34.683Z,7.87
2018-07-13T09:13:05.555Z,7.17
2018-07-13T09:15:34.096Z,7.00
2018-07-13T09:18:02.798Z,9.80
2018-07-13T09:20:31.479Z,9.07
2018-07-13T09:23:00.255Z,8.10
2018-07-13T09:25:28.972Z,8.50
2018-07-13T09:27:57.600Z,7.00
2018-07-13T09:30:26.351Z,9.03
2018-07-13T09:32:58.305Z,7.40
2018-07-13T09:35:27.012Z,6.50
2018-07-13T09:37:55.776Z,7.20
2018-07-13T09:40:24.477Z,7.00
2018-07-13T09:42:53.238Z,7.60
2018-07-13T09:45:22.002Z,8.60
2018-07-13T09:47:50.693Z,6.97
2018-07-13T09:50:19.388Z,6.37
2018-07-13T09:52:52.119Z,6.43
2018-07-13T09:55:20.794Z,7.40
2018-07-13T09:57:49.424Z,7.90
2018-07-13T10:00:18.126Z,6.17
2018-07-13T10:02:47.910Z,5.93
2018-07-13T10:05:16.647Z,8.20
2018-07-13T10:07:45.204Z,6.37
2018-07-13T10:10:14.609Z,7.43
2018-07-13T10:13:03.616Z,6.80
2018-07-13T10:15:32.352Z,5.50
2018-07-13T10:18:01.050Z,5.80
2018-07-13T10:20:29.752Z,7.07
2018-07-13T10:23:06.763Z,7.40
2018-07-13T10:25:35.490Z,8.93
2018-07-13T10:28:04.192Z,9.13
2018-07-13T10:30:32.804Z,6.50
2018-07-13T10:33:01.562Z,4.83
2018-07-13T10:35:30.320Z,8.30
2018-07-13T10:37:58.855Z,8.90
2018-07-13T10:40:27.594Z,7.10
2018-07-13T10:42:59.526Z,10.20
2018-07-13T10:45:28.203Z,9.23
2018-07-13T10:47:56.823Z,7.87
2018-07-13T10:50:25.529Z,6.40
2018-07-13T10:53:01.948Z,7.53
2018-07-13T10:55:30.627Z,9.20
2018-07-13T10:57:59.258Z,9.17
2018-07-13T11:00:27.933Z,9.40
2018-07-13T11:02:57.685Z,7.80
2018-07-13T11:05:26.417Z,7.37
2018-07-13T11:07:55.252Z,7.30
2018-07-13T11:10:23.996Z,6.67
2018-07-13T11:12:52.675Z,7.03
2018-07-13T11:15:21.414Z,5.50
2018-07-13T11:17:50.876Z,6.67
2018-07-13T11:20:19.611Z,7.40
2018-07-13T11:22:48.460Z,7.70
2018-07-13T11:25:17.222Z,6.90
2018-07-13T11:27:45.987Z,6.40
2018-07-13T11:30:14.536Z,7.13
2018-07-13T11:32:46.774Z,7.20
2018-07-13T11:35:15.466Z,5.00
2018-07-13T11:37:44.090Z,5.93
2018-07-13T11:40:12.743Z,6.13
2018-07-13T11:42:54.326Z,6.33
2018-07-13T11:45:22.881Z,8.13
2018-07-13T11:47:51.727Z,6.20
2018-07-13T11:50:20.297Z,7.50
2018-07-13T11:52:52.648Z,7.57
2018-07-13T11:55:21.384Z,6.07
2018-07-13T11:57:50.197Z,7.00
2018-07-13T12:00:19.030Z,5.47
2018-07-13T12:02:55.056Z,5.20
2018-07-13T12:05:23.854Z,7.40
2018-07-13T12:07:52.594Z,6.50
2018-07-13T12:10:21.359Z,6.07
2018-07-13T12:12:57.754Z,5.30
2018-07-13T12:15:26.483Z,5.27
2018-07-13T12:17:55.115Z,4.43
2018-07-13T12:20:23.790Z,5.50
2018-07-13T12:22:53.569Z,5.03
2018-07-13T12:25:22.194Z,5.10
2018-07-13T12:27:50.839Z,5.07
2018-07-13T12:30:19.453Z,4.60
2018-07-13T12:32:49.295Z,4.20
2018-07-13T12:35:18.044Z,5.57
2018-07-13T12:37:46.765Z,5.10
2018-07-13T12:40:15.424Z,5.50
2018-07-13T12:42:46.033Z,4.23
2018-07-13T12:45:14.813Z,4.47
2018-07-13T12:47:43.595Z,3.70
2018-07-13T12:50:12.156Z,6.70
2018-07-13T12:52:40.841Z,4.10
2018-07-13T12:55:09.547Z,5.00
2018-07-13T12:57:38.867Z,4.00
2018-07-13T13:00:07.852Z,5.20
2018-07-13T13:02:36.608Z,4.57
2018-07-13T13:05:12.801Z,4.27
2018-07-13T13:07:41.431Z,4.60
2018-07-13T13:10:10.051Z,4.47
2018-07-13T13:12:38.847Z,4.57
2018-07-13T13:15:08.627Z,3.60
2018-07-13T13:17:37.341Z,5.17
2018-07-13T13:20:06.017Z,5.60
2018-07-13T13:22:34.645Z,4.50
2018-07-13T13:25:10.601Z,5.23
2018-07-13T13:27:39.283Z,5.60
2018-07-13T13:30:07.921Z,5.50
2018-07-13T13:32:36.663Z,5.55
2018-07-13T13:35:13.037Z,4.70
2018-07-13T13:37:41.627Z,7.28
2018-07-13T13:40:10.271Z,5.42
2018-07-13T13:42:38.860Z,4.72
2018-07-13T13:45:10.750Z,4.17
2018-07-13T13:47:40.663Z,3.87
2018-07-13T13:50:09.725Z,3.95
2018-07-13T13:52:38.346Z,4.30
2018-07-13T13:55:14.435Z,5.57
2018-07-13T13:57:43.218Z,4.27
2018-07-13T14:00:11.904Z,4.45
2018-07-13T14:02:40.542Z,4.20
2018-07-13T14:05:13.816Z,4.80
2018-07-13T14:07:42.391Z,4.73
2018-07-13T14:10:11.118Z,5.60
2018-07-13T14:12:39.800Z,4.20
2018-07-13T14:15:08.400Z,5.03
2018-07-13T14:17:37.034Z,4.27
2018-07-13T14:20:05.643Z,3.60
2018-07-13T14:22:34.179Z,3.60
2018-07-13T14:25:04.894Z,5.80
2018-07-13T14:27:33.507Z,4.00
2018-07-13T14:30:02.247Z,4.23
2018-07-13T14:32:30.923Z,4.70
2018-07-13T14:34:59.538Z,4.40
2018-07-13T14:37:28.349Z,4.50
2018-07-13T14:39:56.989Z,5.60
2018-07-13T14:42:25.726Z,4.53
2018-07-13T14:45:07.032Z,4.50
2018-07-13T14:47:35.763Z,5.10
2018-07-13T14:50:04.432Z,6.75
2018-07-13T14:52:33.299Z,4.97
2018-07-13T14:55:16.702Z,7.03
2018-07-13T14:57:45.473Z,5.33
2018-07-13T15:00:14.175Z,6.62
2018-07-13T15:02:42.827Z,4.70
2018-07-13T15:05:29.443Z,4.50
2018-07-13T15:07:59.036Z,6.00
2018-07-13T15:10:27.796Z,5.00
2018-07-13T15:12:56.495Z,5.33
2018-07-13T15:15:41.832Z,4.90
2018-07-13T15:18:10.557Z,5.08
2018-07-13T15:20:39.288Z,6.25
2018-07-13T15:23:08.070Z,4.95
2018-07-13T15:25:39.118Z,4.70
2018-07-13T15:28:07.985Z,5.08
2018-07-13T15:30:36.746Z,4.58
2018-07-13T15:33:05.735Z,4.20
2018-07-13T15:35:46.863Z,4.53
2018-07-13T15:38:17.910Z,4.58
2018-07-13T15:40:46.716Z,4.90
2018-07-13T15:43:15.318Z,6.30
2018-07-13T15:45:44.186Z,5.53
2018-07-13T15:48:12.996Z,4.95
2018-07-13T15:50:41.585Z,7.00
2018-07-13T15:53:10.241Z,4.55
2018-07-13T15:55:51.390Z,5.83
2018-07-13T15:58:20.149Z,5.45
2018-07-13T16:00:48.788Z,4.47
2018-07-13T16:03:17.425Z,6.50
2018-07-13T16:06:00.042Z,5.08
2018-07-13T16:08:28.706Z,5.28
2018-07-13T16:10:57.358Z,5.83
2018-07-13T16:13:26.003Z,5.20
2018-07-13T16:15:58.120Z,5.08
2018-07-13T16:18:26.768Z,5.53
2018-07-13T16:20:55.356Z,4.55
2018-07-13T16:23:24.016Z,4.92
2018-07-13T16:26:06.388Z,4.45
2018-07-13T16:28:36.070Z,4.62
2018-07-13T16:31:04.625Z,4.42
2018-07-13T16:33:33.321Z,4.37
2018-07-13T16:36:03.048Z,4.33
2018-07-13T16:38:31.797Z,4.22
2018-07-13T16:41:00.487Z,5.03
2018-07-13T16:43:29.200Z,4.28
2018-07-13T16:46:05.453Z,4.97
2018-07-13T16:48:34.089Z,3.95
2018-07-13T16:51:02.874Z,5.50
2018-07-13T16:53:31.529Z,4.92
2018-07-13T16:56:01.115Z,4.15
2018-07-13T16:58:29.854Z,4.50
2018-07-13T17:00:58.431Z,3.73
2018-07-13T17:03:27.206Z,4.43
2018-07-13T17:05:55.813Z,3.70
2018-07-13T17:08:24.472Z,5.00
2018-07-13T17:10:53.897Z,4.90
2018-07-13T17:13:23.147Z,4.77
2018-07-13T17:15:51.790Z,4.10
2018-07-13T17:18:21.573Z,4.53
2018-07-13T17:20:50.316Z,4.57
2018-07-13T17:23:19.073Z,4.30
2018-07-13T17:25:48.860Z,4.90
2018-07-13T17:28:17.545Z,4.80
2018-07-13T17:30:46.183Z,4.53
2018-07-13T17:33:14.868Z,4.73
2018-07-13T17:35:43.514Z,4.10
2018-07-13T17:38:12.334Z,5.00
2018-07-13T17:40:40.994Z,4.13
2018-07-13T17:43:09.746Z,4.90
2018-07-13T17:45:38.514Z,4.53
2018-07-13T17:48:07.266Z,3.20
2018-07-13T17:50:35.934Z,4.37
2018-07-13T17:53:04.557Z,3.70
2018-07-13T17:55:33.214Z,4.47
2018-07-13T17:58:01.999Z,4.67
2018-07-13T18:00:30.770Z,4.20
2018-07-13T18:02:59.314Z,4.80
2018-07-13T18:05:28.043Z,5.00
2018-07-13T18:07:56.728Z,3.73
2018-07-13T18:10:25.436Z,4.37
2018-07-13T18:12:54.283Z,4.00
2018-07-13T18:15:22.746Z,5.17
2018-07-13T18:17:51.367Z,4.50
2018-07-13T18:20:20.387Z,4.70
2018-07-13T18:22:49.049Z,4.13
2018-07-13T18:25:17.691Z,4.03
2018-07-13T18:27:46.458Z,4.97
2018-07-13T18:30:15.155Z,4.13
2018-07-13T18:32:43.893Z,4.13
2018-07-13T18:35:12.616Z,5.00
2018-07-13T18:37:41.288Z,5.00
2018-07-13T18:40:09.993Z,4.80
2018-07-13T18:42:38.672Z,3.87
2018-07-13T18:45:07.396Z,3.50
2018-07-13T18:47:36.087Z,3.33
2018-07-13T18:50:04.924Z,4.30
2018-07-13T18:52:33.595Z,5.03
2018-07-13T18:55:02.172Z,3.10
2018-07-13T18:57:30.856Z,4.80
2018-07-13T18:59:59.559Z,4.17
2018-07-13T19:02:28.255Z,4.30
2018-07-13T19:04:56.912Z,4.77
2018-07-13T19:07:25.652Z,4.10
2018-07-13T19:09:54.467Z,4.13
2018-07-13T19:12:23.132Z,4.43
2018-07-13T19:14:51.834Z,5.17
2018-07-13T19:17:20.818Z,4.10
2018-07-13T19:19:49.485Z,4.00
2018-07-13T19:22:18.178Z,3.90
2018-07-13T19:24:46.911Z,3.90
2018-07-13T19:27:15.643Z,4.03
2018-07-13T19:29:44.358Z,4.20
2018-07-13T19:32:12.995Z,4.70
2018-07-13T19:34:41.769Z,4.17
2018-07-13T19:37:10.383Z,5.63
2018-07-13T19:39:39.007Z,4.40
2018-07-13T19:42:07.883Z,4.90
2018-07-13T19:44:36.500Z,4.43
2018-07-13T19:47:06.919Z,4.20
2018-07-13T19:49:35.543Z,4.80
2018-07-13T19:52:04.544Z,5.33
2018-07-13T19:54:33.041Z,5.90
2018-07-13T19:57:01.830Z,5.10
2018-07-13T19:59:30.469Z,4.57
2018-07-13T20:01:59.171Z,5.90
2018-07-13T20:04:27.944Z,4.90
2018-07-13T20:06:56.635Z,4.73
2018-07-13T20:09:25.241Z,5.93
2018-07-13T20:11:53.847Z,5.80
2018-07-13T20:14:22.548Z,5.20
2018-07-13T20:16:51.353Z,4.57
2018-07-13T20:19:19.899Z,5.53
2018-07-13T20:21:48.439Z,5.83
2018-07-13T20:24:17.147Z,5.87
2018-07-13T20:26:45.769Z,5.70
2018-07-13T20:29:14.578Z,6.70
2018-07-13T20:31:43.350Z,6.73
2018-07-13T20:34:12.128Z,5.80
2018-07-13T20:36:40.896Z,6.00
2018-07-13T20:39:09.446Z,5.60
2018-07-13T20:41:38.278Z,6.10
2018-07-13T20:44:07.574Z,6.57
2018-07-13T20:46:36.289Z,5.97
2018-07-13T20:49:04.920Z,5.70
2018-07-13T20:51:33.594Z,6.33
2018-07-13T20:54:02.207Z,6.90
2018-07-13T20:56:30.946Z,7.17
2018-07-13T20:58:59.736Z,6.10
2018-07-13T21:01:28.474Z,6.43
2018-07-13T21:03:57.059Z,5.93
2018-07-13T21:06:25.816Z,6.17
2018-07-13T21:08:54.501Z,6.27
2018-07-13T21:11:23.420Z,7.40
2018-07-13T21:13:52.045Z,5.43
2018-07-13T21:16:21.119Z,5.50
2018-07-13T21:18:49.693Z,7.00
2018-07-13T21:21:18.391Z,5.30
2018-07-13T21:23:46.977Z,6.63
2018-07-13T21:26:15.638Z,5.93
2018-07-13T21:28:44.294Z,7.70
2018-07-13T21:31:13.079Z,6.60
2018-07-13T21:33:41.675Z,6.93
2018-07-13T21:36:10.475Z,6.47
2018-07-13T21:38:39.054Z,5.53
2018-07-13T21:41:07.770Z,6.43
2018-07-13T21:43:36.698Z,6.17
2018-07-13T21:46:05.275Z,6.20
2018-07-13T21:48:33.839Z,6.40
2018-07-13T21:51:02.366Z,6.07
2018-07-13T21:53:30.930Z,7.03
2018-07-13T21:55:59.691Z,6.20
2018-07-13T21:58:28.200Z,8.00
2018-07-13T22:00:56.919Z,7.03
2018-07-13T22:03:25.586Z,6.97
2018-07-13T22:05:54.343Z,6.80
2018-07-13T22:08:22.966Z,6.87
2018-07-13T22:10:51.568Z,6.97
2018-07-13T22:13:20.357Z,7.03
2018-07-13T22:15:49.052Z,6.83
2018-07-13T22:18:17.711Z,6.13
2018-07-13T22:20:46.258Z,6.83
2018-07-13T22:23:15.013Z,8.37
2018-07-13T22:25:43.759Z,6.90
2018-07-13T22:28:12.487Z,6.73
2018-07-13T22:30:41.133Z,7.00
2018-07-13T22:33:09.840Z,5.97
2018-07-13T22:35:38.360Z,7.27
2018-07-13T22:38:06.954Z,6.17
2018-07-13T22:40:35.623Z,7.67
2018-07-13T22:43:04.220Z,6.90
2018-07-13T22:45:33.009Z,7.80
2018-07-13T22:48:01.775Z,6.50
2018-07-13T22:50:30.488Z,7.33
2018-07-13T22:52:59.193Z,8.60
2018-07-13T22:55:27.971Z,10.00
2018-07-13T22:57:56.559Z,8.57
2018-07-13T23:00:25.283Z,8.23
2018-07-13T23:02:53.887Z,7.40
2018-07-13T23:05:22.576Z,9.17
2018-07-13T23:07:53.286Z,6.63
2018-07-13T23:10:21.931Z,8.30
2018-07-13T23:12:50.581Z,9.63
2018-07-13T23:15:19.221Z,7.50
2018-07-13T23:17:47.892Z,8.00
2018-07-13T23:20:16.607Z,7.60
2018-07-13T23:22:45.255Z,9.03
2018-07-13T23:25:13.931Z,7.13
2018-07-13T23:27:42.659Z,6.70
2018-07-13T23:30:11.299Z,8.17
2018-07-13T23:32:39.984Z,8.80
2018-07-13T23:35:08.841Z,8.10
2018-07-13T23:37:37.602Z,7.87
2018-07-13T23:40:06.253Z,8.60
2018-07-13T23:42:34.957Z,8.50
2018-07-13T23:45:03.571Z,10.23
2018-07-13T23:47:32.227Z,8.10
2018-07-13T23:50:00.799Z,11.00
2018-07-13T23:52:29.458Z,9.93
2018-07-13T23:54:58.071Z,10.53
2018-07-13T23:57:26.791Z,11.20
2018-07-13T23:59:55.471Z,10.53
